createdAt,value
2022-10-25T00:01:36.557Z,13.94
2022-10-25T00:04:03.759Z,13.91
2022-10-25T00:06:30.484Z,13.93
2022-10-25T00:08:57.301Z,13.89
2022-10-25T00:11:27.146Z,13.87
2022-10-25T00:13:55.694Z,13.85
2022-10-25T00:16:25.383Z,13.86
2022-10-25T00:18:52.563Z,13.91
2022-10-25T00:21:20.276Z,14.00
2022-10-25T00:23:47.709Z,14.05
2022-10-25T00:26:14.473Z,14.26
2022-10-25T00:28:41.535Z,14.38
2022-10-25T00:31:11.126Z,14.42
2022-10-25T00:33:38.935Z,14.56
2022-10-25T00:36:14.519Z,14.59
2022-10-25T00:38:41.708Z,14.64
2022-10-25T00:41:09.620Z,14.73
2022-10-25T00:43:39.476Z,14.81
2022-10-25T00:46:38.826Z,14.83
2022-10-25T00:49:13.535Z,14.85
2022-10-25T00:51:47.724Z,14.86
2022-10-25T00:54:15.810Z,14.85
2022-10-25T00:56:44.601Z,14.84
2022-10-25T00:59:15.264Z,14.81
2022-10-25T01:01:42.311Z,14.84
2022-10-25T01:04:12.110Z,14.76
2022-10-25T01:06:44.357Z,14.77
2022-10-25T01:09:13.341Z,14.77
2022-10-25T01:11:40.103Z,14.70
2022-10-25T01:14:08.364Z,14.68
2022-10-25T01:16:43.947Z,14.56
2022-10-25T01:19:36.669Z,14.53
2022-10-25T01:22:12.383Z,14.49
2022-10-25T01:24:51.012Z,14.54
2022-10-25T01:27:51.015Z,14.48
2022-10-25T01:30:22.603Z,14.47
2022-10-25T01:33:31.139Z,14.40
2022-10-25T01:36:07.665Z,14.23
2022-10-25T01:38:49.336Z,14.26
2022-10-25T01:41:25.135Z,14.27
2022-10-25T01:44:12.509Z,14.16
2022-10-25T01:46:46.956Z,14.18
2022-10-25T01:49:28.607Z,14.13
2022-10-25T01:51:55.438Z,14.10
2022-10-25T01:54:25.420Z,14.14
2022-10-25T01:57:24.623Z,14.02
2022-10-25T02:00:11.235Z,13.97
2022-10-25T02:02:54.904Z,13.90
2022-10-25T02:05:32.475Z,13.79
2022-10-25T02:08:26.696Z,13.74
2022-10-25T02:11:06.930Z,13.65
2022-10-25T02:13:58.714Z,13.53
2022-10-25T02:16:28.692Z,13.43
2022-10-25T02:19:00.148Z,13.39
2022-10-25T02:21:31.977Z,13.51
2022-10-25T02:24:00.542Z,13.46
2022-10-25T02:26:27.858Z,13.56
2022-10-25T02:28:55.025Z,13.58
2022-10-25T02:31:22.624Z,13.61
2022-10-25T02:33:49.532Z,13.68
2022-10-25T02:36:21.476Z,13.70
2022-10-25T02:38:49.819Z,13.68
2022-10-25T02:41:17.258Z,13.68
2022-10-25T02:43:44.033Z,13.60
2022-10-25T02:46:14.450Z,13.69
2022-10-25T02:48:41.698Z,13.70
2022-10-25T02:51:09.101Z,13.73
2022-10-25T02:53:36.565Z,13.81
2022-10-25T02:56:06.062Z,13.85
2022-10-25T02:58:36.148Z,13.86
2022-10-25T03:01:03.694Z,13.90
2022-10-25T03:03:30.699Z,13.93
2022-10-25T03:05:57.860Z,13.91
2022-10-25T03:08:24.964Z,13.97
2022-10-25T03:10:52.123Z,13.96
2022-10-25T03:13:19.046Z,13.96
2022-10-25T03:15:46.188Z,13.93
2022-10-25T03:18:14.261Z,13.93
2022-10-25T03:20:41.886Z,13.98
2022-10-25T03:23:08.625Z,13.99
2022-10-25T03:25:35.398Z,14.00
2022-10-25T03:28:02.195Z,14.03
2022-10-25T03:30:30.469Z,13.99
2022-10-25T03:32:58.332Z,13.96
2022-10-25T03:35:25.300Z,13.95
2022-10-25T03:37:52.522Z,13.87
2022-10-25T03:40:19.843Z,13.88
2022-10-25T03:42:46.766Z,13.88
2022-10-25T03:45:13.655Z,13.86
2022-10-25T03:47:40.652Z,13.78
2022-10-25T03:50:08.073Z,13.84
2022-10-25T03:52:35.402Z,13.78
2022-10-25T03:55:02.274Z,13.74
2022-10-25T03:57:29.036Z,13.81
2022-10-25T03:59:55.839Z,13.82
2022-10-25T04:02:22.558Z,13.85
2022-10-25T04:04:49.263Z,13.85
2022-10-25T04:07:15.986Z,13.80
2022-10-25T04:09:43.069Z,13.77
2022-10-25T04:12:09.766Z,13.78
2022-10-25T04:14:36.594Z,13.89
2022-10-25T04:17:03.485Z,13.83
2022-10-25T04:19:30.159Z,13.87
2022-10-25T04:21:57.425Z,13.82
2022-10-25T04:24:24.163Z,14.03
2022-10-25T04:26:50.911Z,13.94
2022-10-25T04:29:17.661Z,13.95
2022-10-25T04:31:44.380Z,13.98
2022-10-25T04:34:11.104Z,13.98
2022-10-25T04:36:39.426Z,13.93
2022-10-25T04:39:06.475Z,13.94
2022-10-25T04:41:33.255Z,13.96
2022-10-25T04:44:00.036Z,13.98
2022-10-25T04:46:26.992Z,13.89
2022-10-25T04:48:53.758Z,13.87
2022-10-25T04:51:20.468Z,13.93
2022-10-25T04:53:47.212Z,13.85
2022-10-25T04:56:17.266Z,13.86
2022-10-25T04:58:43.972Z,13.84
2022-10-25T05:01:13.500Z,13.83
2022-10-25T05:03:41.217Z,13.81
2022-10-25T05:06:13.600Z,13.89
2022-10-25T05:08:41.436Z,13.94
2022-10-25T05:11:09.352Z,13.84
2022-10-25T05:13:37.476Z,13.93
2022-10-25T05:16:05.003Z,13.93
2022-10-25T05:18:33.328Z,13.83
2022-10-25T05:21:04.878Z,13.88
2022-10-25T05:23:33.600Z,13.90
2022-10-25T05:26:15.725Z,13.87
2022-10-25T05:28:43.983Z,13.83
2022-10-25T05:31:16.847Z,13.79
2022-10-25T05:33:45.763Z,13.90
2022-10-25T05:36:14.365Z,13.90
2022-10-25T05:38:42.029Z,13.87
2022-10-25T05:41:10.965Z,13.84
2022-10-25T05:43:37.812Z,13.89
2022-10-25T05:46:10.790Z,13.80
2022-10-25T05:48:37.853Z,13.81
2022-10-25T05:51:28.677Z,13.88
2022-10-25T05:53:58.407Z,13.88
2022-10-25T05:56:27.427Z,13.82
2022-10-25T05:58:54.291Z,13.75
2022-10-25T06:01:22.464Z,13.84
2022-10-25T06:03:53.178Z,13.77
2022-10-25T06:06:20.377Z,13.82
2022-10-25T06:08:47.813Z,13.69
2022-10-25T06:11:17.425Z,13.69
2022-10-25T06:13:44.365Z,13.71
2022-10-25T06:16:13.842Z,13.71
2022-10-25T06:18:40.555Z,13.68
2022-10-25T06:21:09.773Z,13.72
2022-10-25T06:23:37.409Z,13.71
2022-10-25T06:26:06.722Z,13.77
2022-10-25T06:28:34.073Z,13.80
2022-10-25T06:31:08.765Z,13.84
2022-10-25T06:33:35.689Z,13.74
2022-10-25T06:36:04.233Z,13.75
2022-10-25T06:38:31.638Z,13.82
2022-10-25T06:41:02.859Z,13.89
2022-10-25T06:43:30.440Z,13.94
2022-10-25T06:45:57.258Z,13.96
2022-10-25T06:48:24.480Z,13.96
2022-10-25T06:51:01.954Z,13.93
2022-10-25T06:53:28.790Z,13.94
2022-10-25T06:56:04.290Z,13.98
2022-10-25T06:58:33.609Z,13.99
2022-10-25T07:01:08.033Z,13.96
2022-10-25T07:03:37.788Z,14.00
2022-10-25T07:06:06.981Z,13.97
2022-10-25T07:08:37.938Z,14.00
2022-10-25T07:11:05.448Z,14.12
2022-10-25T07:13:33.082Z,14.16
2022-10-25T07:16:08.309Z,14.14
2022-10-25T07:18:36.488Z,14.24
2022-10-25T07:21:05.666Z,14.34
2022-10-25T07:23:32.608Z,14.27
2022-10-25T07:25:59.775Z,14.48
2022-10-25T07:28:27.500Z,14.39
2022-10-25T07:30:54.372Z,14.47
2022-10-25T07:33:21.225Z,14.56
2022-10-25T07:36:05.810Z,14.58
2022-10-25T07:38:33.523Z,14.58
2022-10-25T07:41:00.443Z,14.48
2022-10-25T07:43:27.285Z,14.52
2022-10-25T07:45:54.372Z,14.63
2022-10-25T07:48:21.536Z,14.54
2022-10-25T07:50:48.360Z,14.53
2022-10-25T07:53:15.363Z,14.51
2022-10-25T07:55:42.055Z,14.44
2022-10-25T07:58:10.647Z,14.53
2022-10-25T08:00:37.732Z,14.54
2022-10-25T08:03:04.841Z,14.58
2022-10-25T08:05:31.667Z,14.58
2022-10-25T08:07:58.366Z,14.67
2022-10-25T08:10:25.160Z,14.69
2022-10-25T08:12:51.886Z,14.69
2022-10-25T08:15:18.680Z,14.66
2022-10-25T08:17:45.729Z,14.67
2022-10-25T08:20:12.810Z,14.74
2022-10-25T08:22:39.636Z,14.73
2022-10-25T08:25:07.163Z,14.72
2022-10-25T08:27:33.908Z,14.78
2022-10-25T08:30:00.734Z,14.73
2022-10-25T08:32:28.727Z,14.75
2022-10-25T08:34:55.435Z,14.74
2022-10-25T08:37:22.182Z,14.85
2022-10-25T08:39:52.195Z,14.89
2022-10-25T08:42:36.868Z,14.99
2022-10-25T08:45:30.034Z,14.91
2022-10-25T08:47:57.279Z,15.00
2022-10-25T08:50:31.493Z,15.00
2022-10-25T08:52:59.478Z,14.97
2022-10-25T08:56:05.133Z,15.06
2022-10-25T08:58:36.239Z,15.11
2022-10-25T09:01:16.914Z,15.08
2022-10-25T09:03:44.030Z,15.23
2022-10-25T09:06:33.568Z,15.34
2022-10-25T09:09:25.467Z,15.49
2022-10-25T09:12:06.318Z,15.71
2022-10-25T09:14:54.209Z,15.95
2022-10-25T09:17:30.103Z,16.07
2022-10-25T09:20:37.334Z,16.11
2022-10-25T09:23:12.911Z,16.16
2022-10-25T09:26:07.826Z,16.02
2022-10-25T09:28:51.624Z,15.99
2022-10-25T09:31:22.610Z,16.03
2022-10-25T09:33:53.684Z,15.96
2022-10-25T09:36:21.037Z,16.01
2022-10-25T09:38:52.490Z,15.98
2022-10-25T09:41:39.978Z,15.94
2022-10-25T09:44:18.161Z,16.17
2022-10-25T09:46:57.284Z,16.18
2022-10-25T09:50:04.321Z,16.26
2022-10-25T09:52:56.482Z,16.16
2022-10-25T09:55:54.246Z,16.07
2022-10-25T09:58:26.246Z,16.19
2022-10-25T10:00:55.468Z,16.22
2022-10-25T10:03:23.383Z,16.20
2022-10-25T10:05:57.311Z,16.22
2022-10-25T10:08:24.993Z,16.05
2022-10-25T10:10:52.985Z,16.12
2022-10-25T10:13:47.243Z,16.12
2022-10-25T10:16:23.837Z,16.12
2022-10-25T10:18:50.655Z,16.22
2022-10-25T10:21:20.602Z,16.17
2022-10-25T10:23:52.803Z,16.22
2022-10-25T10:26:29.483Z,16.40
2022-10-25T10:29:16.705Z,16.56
2022-10-25T10:31:47.896Z,16.65
2022-10-25T10:34:39.336Z,16.78
2022-10-25T10:37:23.332Z,16.84
2022-10-25T10:40:01.291Z,16.76
2022-10-25T10:42:35.939Z,16.80
2022-10-25T10:45:22.995Z,16.83
2022-10-25T10:47:50.101Z,16.73
2022-10-25T10:50:28.979Z,16.72
2022-10-25T10:53:06.974Z,16.57
2022-10-25T10:55:39.599Z,16.47
2022-10-25T10:58:22.520Z,16.65
2022-10-25T11:01:07.941Z,16.69
2022-10-25T11:04:01.425Z,16.93
2022-10-25T11:06:33.221Z,17.01
2022-10-25T11:09:18.109Z,17.20
2022-10-25T11:11:45.771Z,17.19
2022-10-25T11:14:17.309Z,17.30
2022-10-25T11:17:01.167Z,17.20
2022-10-25T11:19:58.745Z,17.14
2022-10-25T11:23:24.203Z,17.08
2022-10-25T11:26:09.736Z,17.03
2022-10-25T11:29:21.945Z,17.06
2022-10-25T11:32:06.403Z,17.00
2022-10-25T11:35:22.030Z,17.04
2022-10-25T11:38:11.667Z,17.15
2022-10-25T11:40:46.591Z,17.16
2022-10-25T11:43:31.541Z,16.95
2022-10-25T11:46:08.672Z,17.05
2022-10-25T11:48:53.826Z,17.06
2022-10-25T11:52:19.253Z,17.22
2022-10-25T11:54:58.659Z,17.21
2022-10-25T12:01:00.381Z,17.35
2022-10-25T12:04:29.869Z,17.29
2022-10-25T12:07:30.245Z,17.10
2022-10-25T12:10:21.752Z,17.14
2022-10-25T12:12:51.308Z,17.35
2022-10-25T12:15:24.800Z,17.51
2022-10-25T12:17:52.696Z,17.52
2022-10-25T12:20:25.204Z,17.41
2022-10-25T12:22:54.713Z,17.14
2022-10-25T12:25:28.364Z,17.06
2022-10-25T12:28:10.654Z,17.14
2022-10-25T12:30:39.172Z,17.22
2022-10-25T12:33:28.625Z,17.23
2022-10-25T12:35:59.937Z,17.20
2022-10-25T12:38:37.842Z,17.29
2022-10-25T12:41:13.731Z,17.36
2022-10-25T12:44:10.705Z,17.30
2022-10-25T12:47:01.161Z,17.41
2022-10-25T12:50:00.369Z,17.51
2022-10-25T12:52:35.784Z,17.55
2022-10-25T12:55:23.349Z,17.50
2022-10-25T12:58:08.705Z,17.52
2022-10-25T13:00:47.494Z,17.46
2022-10-25T13:03:52.930Z,17.35
2022-10-25T13:06:40.557Z,17.37
2022-10-25T13:09:13.062Z,17.31
2022-10-25T13:11:43.586Z,17.23
2022-10-25T13:14:27.477Z,17.36
2022-10-25T13:17:37.668Z,17.53
2022-10-25T13:20:28.234Z,17.52
2022-10-25T13:22:55.066Z,17.58
2022-10-25T13:25:50.983Z,17.58
2022-10-25T13:28:25.497Z,17.44
2022-10-25T13:31:30.883Z,17.52
2022-10-25T13:34:27.574Z,17.52
2022-10-25T13:36:59.137Z,17.61
2022-10-25T13:39:45.142Z,17.58
2022-10-25T13:42:38.278Z,17.75
2022-10-25T13:45:08.568Z,17.69
2022-10-25T13:47:47.444Z,17.75
2022-10-25T13:50:41.341Z,17.66
2022-10-25T13:53:23.718Z,17.59
2022-10-25T13:56:05.994Z,17.61
2022-10-25T13:58:45.323Z,17.63
2022-10-25T14:01:55.815Z,17.50
2022-10-25T14:04:34.244Z,17.48
2022-10-25T14:07:52.332Z,17.61
2022-10-25T14:10:23.422Z,17.76
2022-10-25T14:12:53.694Z,17.85
2022-10-25T14:15:40.493Z,17.79
2022-10-25T14:18:16.444Z,17.87
2022-10-25T14:20:46.903Z,17.89
2022-10-25T14:23:17.922Z,17.90
2022-10-25T14:25:54.070Z,17.86
2022-10-25T14:28:31.181Z,17.74
2022-10-25T14:31:05.355Z,17.75
2022-10-25T14:33:51.506Z,17.69
2022-10-25T14:36:44.919Z,17.73
2022-10-25T14:39:24.235Z,17.77
2022-10-25T14:41:59.779Z,17.73
2022-10-25T14:44:29.498Z,17.80
2022-10-25T14:46:58.300Z,17.61
2022-10-25T14:49:25.590Z,17.62
2022-10-25T14:51:55.637Z,17.50
2022-10-25T14:54:35.452Z,17.53
2022-10-25T14:57:07.258Z,17.54
2022-10-25T14:59:45.153Z,17.47
2022-10-25T15:02:21.811Z,17.37
2022-10-25T15:04:54.589Z,17.42
2022-10-25T15:07:23.611Z,17.40
2022-10-25T15:09:56.795Z,17.44
2022-10-25T15:12:25.958Z,17.40
2022-10-25T15:14:54.150Z,17.39
2022-10-25T15:17:29.561Z,17.28
2022-10-25T15:20:17.276Z,17.27
2022-10-25T15:22:47.266Z,17.26
2022-10-25T15:25:43.706Z,17.16
2022-10-25T15:28:16.077Z,17.13
2022-10-25T15:31:13.448Z,17.18
2022-10-25T15:33:43.108Z,17.20
2022-10-25T15:36:20.667Z,17.19
2022-10-25T15:39:07.874Z,17.15
2022-10-25T15:41:35.701Z,17.09
2022-10-25T15:44:02.399Z,17.11
2022-10-25T15:46:33.542Z,17.02
2022-10-25T15:49:02.723Z,16.98
2022-10-25T15:51:31.210Z,16.96
2022-10-25T15:53:58.341Z,16.79
2022-10-25T15:56:25.116Z,16.77
2022-10-25T15:58:52.097Z,16.74
2022-10-25T16:01:19.690Z,16.56
2022-10-25T16:03:46.620Z,16.58
2022-10-25T16:06:14.526Z,16.56
2022-10-25T16:08:42.192Z,16.65
2022-10-25T16:11:14.680Z,16.53
2022-10-25T16:13:42.627Z,16.48
2022-10-25T16:16:38.809Z,16.40
2022-10-25T16:19:04.176Z,16.27
2022-10-25T16:21:31.480Z,16.15
2022-10-25T16:23:58.253Z,16.05
2022-10-25T16:26:34.883Z,15.87
2022-10-25T16:29:01.568Z,15.89
2022-10-25T16:31:28.465Z,15.80
2022-10-25T16:33:55.559Z,15.74
2022-10-25T16:36:22.310Z,15.72
2022-10-25T16:38:50.166Z,15.60
2022-10-25T16:41:32.108Z,15.46
2022-10-25T16:43:59.138Z,15.37
2022-10-25T16:46:26.910Z,15.33
2022-10-25T16:48:55.870Z,15.23
2022-10-25T16:51:25.997Z,15.06
2022-10-25T16:53:52.946Z,15.05
2022-10-25T16:56:19.621Z,14.96
2022-10-25T16:58:47.084Z,14.85
2022-10-25T17:01:21.856Z,14.61
2022-10-25T17:03:50.090Z,14.60
2022-10-25T17:06:39.708Z,14.57
2022-10-25T17:09:05.223Z,14.38
2022-10-25T17:11:31.981Z,14.23
2022-10-25T17:13:58.935Z,14.19
2022-10-25T17:16:25.738Z,14.21
2022-10-25T17:18:52.563Z,14.16
2022-10-25T17:21:19.564Z,14.02
2022-10-25T17:23:46.337Z,14.06
2022-10-25T17:26:13.202Z,13.97
2022-10-25T17:28:43.926Z,13.93
2022-10-25T17:31:13.067Z,13.92
2022-10-25T17:33:40.850Z,13.95
2022-10-25T17:36:21.071Z,13.75
2022-10-25T17:38:47.812Z,13.75
2022-10-25T17:41:14.766Z,13.67
2022-10-25T17:43:42.054Z,13.63
2022-10-25T17:46:15.403Z,13.65
2022-10-25T17:48:42.358Z,13.57
2022-10-25T17:51:11.937Z,13.39
2022-10-25T17:53:38.903Z,13.31
2022-10-25T17:56:13.247Z,13.36
2022-10-25T17:58:43.588Z,13.33
2022-10-25T18:01:11.691Z,13.31
2022-10-25T18:03:38.779Z,13.37
2022-10-25T18:06:10.905Z,13.24
2022-10-25T18:08:37.859Z,13.45
2022-10-25T18:11:23.435Z,13.24
2022-10-25T18:13:55.614Z,13.17
2022-10-25T18:16:26.018Z,13.17
2022-10-25T18:18:57.094Z,13.07
2022-10-25T18:21:24.445Z,13.12
2022-10-25T18:24:01.353Z,12.98
2022-10-25T18:26:28.337Z,13.12
2022-10-25T18:28:55.381Z,13.02
2022-10-25T18:31:22.677Z,12.99
2022-10-25T18:33:49.686Z,12.90
2022-10-25T18:36:19.983Z,12.83
2022-10-25T18:38:47.241Z,12.64
2022-10-25T18:41:16.527Z,12.62
2022-10-25T18:43:43.684Z,12.59
2022-10-25T18:46:10.564Z,12.54
2022-10-25T18:48:37.447Z,12.63
2022-10-25T18:51:05.720Z,12.45
2022-10-25T18:53:35.540Z,12.40
2022-10-25T18:56:02.881Z,12.23
2022-10-25T18:58:32.897Z,12.21
2022-10-25T19:01:13.257Z,12.22
2022-10-25T19:03:41.110Z,12.20
2022-10-25T19:06:08.226Z,12.28
2022-10-25T19:08:35.777Z,12.22
2022-10-25T19:11:06.593Z,12.28
2022-10-25T19:13:33.517Z,12.26
2022-10-25T19:16:00.430Z,12.18
2022-10-25T19:18:28.610Z,12.34
2022-10-25T19:20:55.931Z,12.28
2022-10-25T19:23:22.661Z,12.24
2022-10-25T19:25:49.549Z,12.13
2022-10-25T19:28:16.335Z,12.04
2022-10-25T19:30:43.075Z,12.14
2022-10-25T19:33:10.045Z,12.12
2022-10-25T19:35:36.674Z,11.94
2022-10-25T19:38:03.426Z,11.98
2022-10-25T19:40:30.703Z,12.11
2022-10-25T19:42:57.546Z,12.06
2022-10-25T19:45:24.618Z,12.03
2022-10-25T19:47:56.167Z,11.90
2022-10-25T19:50:24.146Z,11.86
2022-10-25T19:52:51.442Z,11.77
2022-10-25T19:55:18.194Z,11.75
2022-10-25T19:57:45.194Z,11.72
2022-10-25T20:00:13.655Z,11.57
2022-10-25T20:02:40.871Z,11.54
2022-10-25T20:05:08.379Z,11.63
2022-10-25T20:07:36.520Z,11.54
2022-10-25T20:10:03.598Z,11.55
2022-10-25T20:12:30.678Z,11.60
2022-10-25T20:14:58.109Z,11.59
2022-10-25T20:17:25.037Z,11.58
2022-10-25T20:19:52.044Z,11.57
2022-10-25T20:22:19.530Z,11.51
2022-10-25T20:24:46.319Z,11.37
2022-10-25T20:27:13.106Z,11.37
2022-10-25T20:29:40.300Z,11.34
2022-10-25T20:32:07.011Z,11.38
2022-10-25T20:34:35.498Z,11.36
2022-10-25T20:37:04.006Z,11.35
2022-10-25T20:39:30.876Z,11.28
2022-10-25T20:41:58.018Z,11.20
2022-10-25T20:44:24.986Z,11.14
2022-10-25T20:46:51.754Z,11.11
2022-10-25T20:49:18.562Z,11.00
2022-10-25T20:51:45.958Z,10.95
2022-10-25T20:54:12.797Z,10.89
2022-10-25T20:56:39.946Z,10.86
2022-10-25T20:59:07.039Z,10.94
2022-10-25T21:01:33.841Z,10.94
2022-10-25T21:04:00.778Z,11.03
2022-10-25T21:06:27.515Z,10.83
2022-10-25T21:08:54.266Z,10.70
2022-10-25T21:11:21.319Z,10.64
2022-10-25T21:13:48.341Z,10.47
2022-10-25T21:16:16.170Z,10.55
2022-10-25T21:18:43.376Z,10.60
2022-10-25T21:21:18.055Z,10.60
2022-10-25T21:23:46.072Z,10.57
2022-10-25T21:26:12.839Z,10.57
2022-10-25T21:28:40.496Z,10.53
2022-10-25T21:31:14.876Z,10.43
2022-10-25T21:33:49.895Z,10.35
2022-10-25T21:36:18.745Z,10.47
2022-10-25T21:38:45.644Z,10.52
2022-10-25T21:41:15.324Z,10.35
2022-10-25T21:43:44.288Z,10.34
2022-10-25T21:46:12.029Z,10.35
2022-10-25T21:48:38.802Z,10.39
2022-10-25T21:51:05.687Z,10.36
2022-10-25T21:53:32.442Z,10.25
2022-10-25T21:56:07.456Z,10.24
2022-10-25T21:58:34.566Z,10.31
2022-10-25T22:01:01.448Z,10.15
2022-10-25T22:03:30.200Z,10.22
2022-10-25T22:05:57.681Z,10.11
2022-10-25T22:08:24.533Z,10.11
2022-10-25T22:11:02.977Z,10.13
2022-10-25T22:13:30.045Z,10.16
2022-10-25T22:16:06.027Z,10.18
2022-10-25T22:18:33.779Z,10.14
2022-10-25T22:21:03.144Z,10.02
2022-10-25T22:23:30.950Z,10.00
2022-10-25T22:26:07.165Z,10.04
2022-10-25T22:28:36.807Z,9.99
2022-10-25T22:31:12.492Z,9.99
2022-10-25T22:33:39.637Z,9.89
2022-10-25T22:36:09.203Z,9.85
2022-10-25T22:38:36.322Z,9.87
2022-10-25T22:41:06.340Z,9.92
2022-10-25T22:43:37.011Z,9.91
2022-10-25T22:46:05.976Z,9.86
2022-10-25T22:48:34.012Z,9.93
2022-10-25T22:51:00.760Z,9.97
2022-10-25T22:53:28.340Z,9.97
2022-10-25T22:56:00.536Z,9.89
2022-10-25T22:58:28.883Z,9.90
2022-10-25T23:01:00.685Z,9.97
2022-10-25T23:03:27.488Z,10.02
2022-10-25T23:05:59.020Z,9.90
2022-10-25T23:08:26.734Z,9.91
2022-10-25T23:11:01.965Z,9.82
2022-10-25T23:13:29.866Z,9.82
2022-10-25T23:15:57.037Z,9.84
2022-10-25T23:18:24.831Z,9.89
2022-10-25T23:20:52.632Z,9.92
2022-10-25T23:23:19.567Z,9.80
2022-10-25T23:25:46.832Z,9.68
2022-10-25T23:28:13.808Z,9.78
2022-10-25T23:30:41.325Z,9.73
2022-10-25T23:33:08.576Z,9.76
2022-10-25T23:35:35.257Z,9.77
2022-10-25T23:38:02.395Z,9.80
2022-10-25T23:40:31.886Z,9.56
2022-10-25T23:42:59.018Z,9.45
2022-10-25T23:45:26.973Z,9.51
2022-10-25T23:47:54.039Z,9.41
2022-10-25T23:50:20.839Z,9.31
2022-10-25T23:52:48.368Z,9.37
2022-10-25T23:55:16.506Z,9.41
2022-10-25T23:57:43.277Z,9.37
